Time;durP1;ratioP1;P1;durP2;ratioP2;P2;SDS_P1;SDS_P2;PMS_P1;PMS_P2;Temp;Humidity;BMP_temperature;BMP_pressure;BME280_temperature;BME280_humidity;BME280_pressure;Samples;Min_cycle;Max_cycle;Signal;HPM_P1;HPM_P2
2022/04/29 00:00:00;;;;;;;35.15;16.80;;;;;;;7.77;73.69;100455.63;8509930;27;20057;-72
2022/04/29 00:04:01;;;;;;;43.42;19.17;;;;;;;7.71;73.40;100462.03;8454283;27;20047;-71
2022/04/29 00:08:06;;;;;;;43.83;17.98;;;;;;;7.67;73.61;100460.91;8496075;27;20390;-71
2022/04/29 00:12:07;;;;;;;48.17;19.38;;;;;;;7.55;73.64;100460.28;8512964;27;20484;-71
2022/04/29 00:16:08;;;;;;;44.08;17.75;;;;;;;7.44;74.20;100455.88;8521335;27;20035;-71
2022/04/29 00:20:10;;;;;;;49.85;18.98;;;;;;;7.37;74.13;100460.66;8521024;27;20133;-71
2022/04/29 00:24:12;;;;;;;44.10;17.40;;;;;;;7.27;74.42;100455.19;8507344;27;20043;-71
2022/04/29 00:28:13;;;;;;;56.97;21.23;;;;;;;7.13;74.47;100450.22;8526322;27;20050;-72
2022/04/29 00:32:14;;;;;;;49.42;21.02;;;;;;;7.06;74.99;100457.66;8468692;27;20049;-71
2022/04/29 00:36:15;;;;;;;57.58;22.48;;;;;;;6.83;75.47;100449.88;8485872;27;20043;-72
2022/04/29 00:40:19;;;;;;;61.55;23.08;;;;;;;6.73;75.31;100444.38;8458761;27;20427;-71
2022/04/29 00:44:20;;;;;;;64.57;21.77;;;;;;;6.61;75.36;100451.78;8473424;27;20054;-71
2022/04/29 00:48:23;;;;;;;49.85;20.52;;;;;;;6.53;75.37;100449.50;8520311;27;20563;-71
2022/04/29 00:52:24;;;;;;;49.20;21.08;;;;;;;6.31;76.03;100436.91;8510896;27;20047;-72
2022/04/29 00:56:29;;;;;;;50.67;20.70;;;;;;;6.20;76.12;100437.81;8508762;27;20054;-72
2022/04/29 01:00:31;;;;;;;62.42;23.45;;;;;;;6.10;76.19;100440.34;8508597;27;20184;-72
2022/04/29 01:04:37;;;;;;;64.95;22.83;;;;;;;6.01;76.27;100447.22;8510593;27;20096;-71
2022/04/29 01:08:38;;;;;;;52.90;21.02;;;;;;;6.02;75.98;100427.38;8495038;27;20058;-72
2022/04/29 01:12:42;;;;;;;53.00;20.75;;;;;;;5.94;75.90;100430.47;8495652;27;20501;-72
2022/04/29 01:16:43;;;;;;;64.95;21.80;;;;;;;5.86;75.95;100429.00;8522304;27;20054;-71
2022/04/29 01:20:44;;;;;;;47.55;19.23;;;;;;;5.76;76.37;100428.03;8510111;27;20411;-72
2022/04/29 01:24:47;;;;;;;50.88;20.85;;;;;;;5.64;76.51;100429.97;8511925;27;20134;-72
2022/04/29 01:28:50;;;;;;;49.22;19.42;;;;;;;5.56;76.43;100422.34;8511656;27;20062;-70
2022/04/29 01:32:53;;;;;;;50.15;19.30;;;;;;;5.45;76.62;100416.81;8491424;27;20047;-71
2022/04/29 01:36:54;;;;;;;39.72;18.08;;;;;;;5.39;76.52;100412.41;8515441;27;20458;-71
2022/04/29 01:40:55;;;;;;;47.25;18.48;;;;;;;5.33;76.59;100418.78;8515266;27;20051;-71
2022/04/29 01:44:56;;;;;;;50.42;19.73;;;;;;;5.28;76.68;100416.00;8517647;27;20276;-72
2022/04/29 01:48:57;;;;;;;53.13;19.88;;;;;;;5.23;76.83;100413.25;8463095;27;20242;-72
2022/04/29 01:52:58;;;;;;;43.30;18.45;;;;;;;5.17;76.75;100419.56;8522502;27;20050;-70
2022/04/29 01:56:59;;;;;;;38.47;17.58;;;;;;;5.15;77.05;100421.66;8530172;27;20046;-72
2022/04/29 02:01:00;;;;;;;44.40;18.50;;;;;;;5.10;77.07;100413.53;8528883;27;20054;-71
2022/04/29 02:05:01;;;;;;;47.35;18.52;;;;;;;5.08;77.11;100410.28;8493010;27;20042;-71
2022/04/29 02:09:02;;;;;;;46.78;18.85;;;;;;;5.04;77.22;100398.44;8448039;27;20043;-71
2022/04/29 02:13:03;;;;;;;50.17;20.35;;;;;;;4.98;77.22;100410.09;8507759;27;20039;-72
2022/04/29 02:17:06;;;;;;;45.05;19.42;;;;;;;4.94;77.35;100408.97;8479652;27;20046;-71
2022/04/29 02:21:07;;;;;;;53.97;19.67;;;;;;;4.90;77.57;100415.84;8498833;27;20583;-71
2022/04/29 02:25:08;;;;;;;45.15;21.20;;;;;;;4.80;77.84;100407.63;8509204;27;20047;-72
2022/04/29 02:29:09;;;;;;;44.70;18.73;;;;;;;4.76;77.89;100419.88;8518133;27;20054;-71
2022/04/29 02:33:10;;;;;;;45.83;18.65;;;;;;;4.67;78.23;100420.22;8458724;27;20042;-71
2022/04/29 02:37:11;;;;;;;47.22;19.60;;;;;;;4.64;77.98;100410.03;8465341;27;20043;-71
2022/04/29 02:41:12;;;;;;;45.08;19.00;;;;;;;4.58;78.13;100413.63;8471445;27;20051;-71
2022/04/29 02:45:13;;;;;;;47.25;20.23;;;;;;;4.49;78.29;100406.22;8482247;27;20494;-71
2022/04/29 02:49:14;;;;;;;42.22;17.75;;;;;;;4.46;78.19;100396.81;8481942;27;20444;-71
2022/04/29 02:53:15;;;;;;;37.63;17.48;;;;;;;4.41;78.30;100402.06;8479051;27;20081;-71
2022/04/29 02:57:16;;;;;;;44.00;18.75;;;;;;;4.41;78.12;100404.72;8470832;27;20043;-72
2022/04/29 03:01:17;;;;;;;45.50;17.90;;;;;;;4.45;78.54;100405.88;8481679;27;20048;-72
2022/04/29 03:05:18;;;;;;;43.33;18.60;;;;;;;4.50;78.07;100414.00;8467672;27;20043;-72
2022/04/29 03:09:20;;;;;;;43.13;17.80;;;;;;;4.49;78.36;100412.41;8474230;27;20050;-71
2022/04/29 03:13:21;;;;;;;39.20;17.52;;;;;;;4.44;78.35;100414.94;8485595;27;20047;-71
2022/04/29 03:21:41;;;;;;;39.97;19.00;;;;;;;4.39;78.91;100406.81;8474676;27;20055;-72
2022/04/29 03:25:42;;;;;;;42.15;17.55;;;;;;;4.35;78.96;100413.69;8492288;27;20055;-72
2022/04/29 03:29:43;;;;;;;34.05;16.88;;;;;;;4.36;79.15;100423.34;8472679;27;20063;-72
2022/04/29 03:33:44;;;;;;;41.78;17.20;;;;;;;4.24;79.36;100425.22;8474926;27;20577;-72
2022/04/29 03:37:46;;;;;;;41.35;17.23;;;;;;;4.23;79.30;100418.25;8468294;27;20076;-72
2022/04/29 03:41:47;;;;;;;37.67;17.38;;;;;;;4.24;79.66;100431.38;8508626;27;20043;-72
2022/04/29 03:45:48;;;;;;;43.72;16.58;;;;;;;4.29;79.53;100422.66;8517549;27;20476;-72
2022/04/29 03:49:49;;;;;;;44.47;17.30;;;;;;;4.25;79.70;100426.84;8495023;27;20054;-72
2022/04/29 03:53:51;;;;;;;39.58;17.42;;;;;;;4.31;79.77;100436.63;8497164;27;20062;-71
2022/04/29 03:57:56;;;;;;;41.20;18.00;;;;;;;4.43;79.42;100429.38;8468658;27;20057;-71
2022/04/29 04:01:57;;;;;;;38.30;17.83;;;;;;;4.55;79.36;100427.47;8513462;27;20046;-71
2022/04/29 04:10:18;;;;;;;45.00;18.55;;;;;;;4.59;79.86;100439.34;8466311;27;20043;-72
2022/04/29 04:14:19;;;;;;;28.73;17.02;;;;;;;4.59;80.31;100439.34;8521776;27;20042;-71
2022/04/29 04:18:20;;;;;;;34.70;17.42;;;;;;;4.59;80.51;100444.69;8496341;27;20497;-71
2022/04/29 04:22:23;;;;;;;32.47;17.67;;;;;;;4.66;80.04;100444.53;8527897;27;20078;-72
2022/04/29 04:26:24;;;;;;;37.53;17.13;;;;;;;4.78;80.09;100452.53;8529219;27;20068;-72
2022/04/29 04:30:25;;;;;;;29.95;16.45;;;;;;;4.83;80.60;100447.28;8528831;27;20074;-72
2022/04/29 04:38:47;;;;;;;34.80;17.50;;;;;;;4.91;80.53;100457.63;8528913;27;20071;-72
2022/04/29 04:42:48;;;;;;;39.58;18.88;;;;;;;5.00;80.21;100456.19;8528609;27;20055;-72
2022/04/29 04:46:49;;;;;;;33.03;17.63;;;;;;;5.12;79.87;100454.28;8528859;27;20407;-72
2022/04/29 04:50:50;;;;;;;35.78;17.85;;;;;;;5.24;79.66;100457.69;8510328;27;20050;-72
2022/04/29 04:54:51;;;;;;;34.58;18.30;;;;;;;5.44;79.51;100462.63;8510207;27;20125;-72
2022/04/29 04:58:52;;;;;;;43.83;18.75;;;;;;;5.63;79.61;100465.88;8528906;27;20046;-72
2022/04/29 05:02:53;;;;;;;34.70;18.33;;;;;;;5.79;79.53;100465.06;8528427;27;20046;-72
2022/04/29 05:06:54;;;;;;;34.05;18.00;;;;;;;5.96;80.24;100471.25;8528134;27;20480;-72
2022/04/29 05:10:55;;;;;;;33.38;17.85;;;;;;;6.14;79.73;100462.94;8528891;27;20172;-72
2022/04/29 05:14:56;;;;;;;28.35;16.27;;;;;;;6.38;80.67;100468.09;8528058;27;20043;-72
2022/04/29 05:18:57;;;;;;;28.40;16.35;;;;;;;6.58;80.15;100469.19;8527707;27;20500;-72
2022/04/29 05:22:58;;;;;;;27.98;13.68;;;;;;;6.77;79.13;100461.63;8528312;27;20054;-72
2022/04/29 05:27:00;;;;;;;26.75;12.25;;;;;;;6.92;77.93;100469.88;8527902;27;20039;-72
2022/04/29 05:31:03;;;;;;;23.80;12.45;;;;;;;7.11;76.92;100473.84;8506148;27;20386;-72
2022/04/29 05:35:05;;;;;;;26.05;8.10;;;;;;;7.28;75.53;100470.25;8493916;28;20042;-72
2022/04/29 05:43:30;;;;;;;17.02;8.02;;;;;;;7.76;70.21;100470.16;8421713;28;20048;-72
2022/04/29 05:47:31;;;;;;;18.23;7.65;;;;;;;7.98;69.24;100473.50;8421737;28;20052;-72
2022/04/29 05:51:32;;;;;;;14.50;7.53;;;;;;;8.14;68.30;100470.97;8421698;28;20486;-73
2022/04/29 05:55:33;;;;;;;18.58;6.38;;;;;;;8.34;68.04;100481.88;8421695;28;20058;-72
2022/04/29 05:59:34;;;;;;;12.98;7.15;;;;;;;8.54;67.36;100481.97;8422138;28;20048;-72
2022/04/29 06:03:35;;;;;;;15.27;6.10;;;;;;;8.77;65.11;100481.56;8422089;28;20059;-72
2022/04/29 06:07:37;;;;;;;13.00;5.22;;;;;;;9.00;61.83;100490.25;8421898;28;20080;-73
2022/04/29 06:11:38;;;;;;;13.25;4.80;;;;;;;9.15;59.22;100487.59;8457001;28;20427;-72
2022/04/29 06:15:39;;;;;;;11.55;5.75;;;;;;;9.28;58.36;100492.50;8508296;27;20099;-72
2022/04/29 06:19:40;;;;;;;14.68;5.65;;;;;;;9.37;58.44;100490.88;8534241;27;20111;-72
2022/04/29 06:23:41;;;;;;;11.57;4.82;;;;;;;9.46;58.29;100500.09;8533597;27;20521;-72
2022/04/29 06:27:42;;;;;;;10.32;4.53;;;;;;;9.67;58.01;100507.13;8514069;27;20049;-71
2022/04/29 06:31:43;;;;;;;13.32;4.75;;;;;;;9.85;55.80;100496.84;8505356;27;20496;-72
2022/04/29 06:35:44;;;;;;;9.13;4.53;;;;;;;9.98;55.13;100501.72;8499072;27;20054;-72
2022/04/29 06:39:45;;;;;;;12.07;4.70;;;;;;;10.04;54.92;100500.66;8498952;27;20149;-72
2022/04/29 06:43:47;;;;;;;8.35;4.07;;;;;;;10.10;55.59;100505.75;8498783;27;20458;-72
2022/04/29 06:47:47;;;;;;;8.38;4.60;;;;;;;10.17;54.11;100510.91;8480152;27;20108;-72
2022/04/29 06:51:49;;;;;;;11.63;4.43;;;;;;;10.33;53.08;100507.09;8498727;27;20043;-72
2022/04/29 06:55:49;;;;;;;10.15;4.93;;;;;;;10.41;53.34;100495.75;8498501;27;20047;-72
2022/04/29 06:59:51;;;;;;;13.88;5.97;;;;;;;10.52;53.06;100497.34;8498657;27;20232;-72
2022/04/29 07:03:52;;;;;;;10.93;5.55;;;;;;;10.61;54.59;100500.28;8497980;27;20064;-72
2022/04/29 07:07:53;;;;;;;9.75;4.97;;;;;;;10.78;54.01;100499.97;8525308;27;20066;-73
2022/04/29 07:11:56;;;;;;;11.07;5.40;;;;;;;11.01;52.55;100504.72;8532445;27;20041;-72
2022/04/29 07:15:59;;;;;;;12.52;5.47;;;;;;;11.08;51.77;100505.25;8532166;27;20050;-72
2022/04/29 07:20:00;;;;;;;13.05;5.47;;;;;;;11.15;53.69;100499.53;8512914;27;20115;-72
2022/04/29 07:24:02;;;;;;;8.98;5.10;;;;;;;11.27;53.13;100492.69;8531973;27;20424;-72
2022/04/29 07:28:03;;;;;;;15.93;5.45;;;;;;;11.29;52.62;100512.16;8531229;27;20042;-73
2022/04/29 07:32:04;;;;;;;14.38;5.47;;;;;;;11.33;51.87;100502.41;8500693;27;20046;-73
2022/04/29 07:44:46;;;;;;;11.98;5.32;;;;;;;11.75;50.45;100509.19;8451825;27;20323;-73
2022/04/29 07:48:48;;;;;;;16.33;5.72;;;;;;;11.77;50.24;100507.00;8461027;27;20054;-72
2022/04/29 07:52:48;;;;;;;12.90;6.13;;;;;;;11.90;50.89;100502.88;8476435;27;20664;-72
2022/04/29 07:56:50;;;;;;;9.68;5.97;;;;;;;12.05;50.82;100508.94;8530870;27;20233;-72
2022/04/29 08:00:50;;;;;;;12.23;6.10;;;;;;;12.10;51.02;100503.50;8530703;27;20050;-72
2022/04/29 08:04:51;;;;;;;9.98;4.50;;;;;;;12.39;48.73;100508.06;8530459;27;20049;-72
2022/04/29 08:08:52;;;;;;;7.90;5.25;;;;;;;12.46;49.21;100513.97;8530453;27;20098;-73
2022/04/29 08:12:53;;;;;;;13.18;5.38;;;;;;;12.56;49.11;100508.44;8530039;27;20101;-73
2022/04/29 08:16:54;;;;;;;8.63;5.18;;;;;;;12.60;49.80;100512.19;8530096;27;20495;-73
2022/04/29 08:20:56;;;;;;;9.68;5.35;;;;;;;12.68;48.85;100511.56;8529926;27;20046;-72
2022/04/29 08:24:57;;;;;;;10.45;5.15;;;;;;;12.81;49.23;100505.44;8529821;27;20062;-72
2022/04/29 08:28:58;;;;;;;11.70;4.85;;;;;;;12.92;48.22;100501.50;8525638;27;20047;-73
2022/04/29 08:33:00;;;;;;;11.98;5.07;;;;;;;13.04;48.36;100499.19;8495635;27;20058;-73
2022/04/29 08:37:03;;;;;;;15.05;5.40;;;;;;;13.15;48.38;100493.66;8458949;27;20058;-73
2022/04/29 08:41:06;;;;;;;12.30;4.70;;;;;;;13.27;49.38;100491.34;8441445;27;20058;-72
2022/04/29 08:45:09;;;;;;;8.27;4.65;;;;;;;13.42;46.88;100488.41;8495046;27;20062;-72
2022/04/29 08:49:10;;;;;;;12.65;4.93;;;;;;;13.38;47.15;100482.75;8494932;27;20050;-72
2022/04/29 08:53:11;;;;;;;9.95;4.50;;;;;;;13.63;46.80;100483.47;8494859;27;20043;-72
2022/04/29 09:01:32;;;;;;;9.25;5.18;;;;;;;13.68;45.87;100492.34;8494817;27;20051;-73
2022/04/29 09:05:34;;;;;;;10.75;4.65;;;;;;;13.78;46.29;100492.19;8494743;28;20533;-72
2022/04/29 09:09:35;;;;;;;10.02;4.68;;;;;;;13.94;46.08;100479.97;8408162;28;20055;-72
2022/04/29 09:13:37;;;;;;;11.80;5.28;;;;;;;14.07;44.71;100472.94;8494469;28;20047;-73
2022/04/29 09:17:43;;;;;;;8.95;4.93;;;;;;;14.21;44.01;100472.97;8494317;28;20190;-73
2022/04/29 09:21:44;;;;;;;19.40;8.57;;;;;;;14.37;43.75;100477.06;8494338;28;20122;-72
2022/04/29 09:25:45;;;;;;;9.18;5.07;;;;;;;14.21;43.33;100464.84;8494502;28;20073;-72
2022/04/29 09:29:46;;;;;;;10.02;4.72;;;;;;;14.57;44.19;100465.78;8494241;27;20552;-72
2022/04/29 09:33:58;;;;;;;10.30;4.30;;;;;;;14.93;42.12;100473.22;8458056;28;20110;-73
2022/04/29 09:42:23;;;;;;;14.05;5.95;;;;;;;15.21;42.24;100469.34;8493711;28;20082;-72
2022/04/29 09:46:24;;;;;;;14.82;5.00;;;;;;;15.06;42.14;100461.53;8493996;28;20047;-72
2022/04/29 09:50:52;;;;;;;13.98;5.40;;;;;;;15.20;41.28;100462.28;8495830;27;20142;-72
2022/04/29 09:54:54;;;;;;;12.70;5.45;;;;;;;15.50;41.08;100467.03;8328590;28;20152;-72
2022/04/29 09:58:56;;;;;;;9.55;5.93;;;;;;;15.52;40.09;100453.97;8346070;28;20045;-71
2022/04/29 10:03:03;;;;;;;14.50;5.53;;;;;;;15.30;41.70;100450.38;8361673;28;20052;-73
2022/04/29 10:07:06;;;;;;;15.65;5.68;;;;;;;15.33;40.66;100444.31;8329868;28;20083;-72
2022/04/29 10:11:07;;;;;;;11.95;5.60;;;;;;;15.25;41.71;100448.56;8361326;28;20056;-72
2022/04/29 10:15:16;;;;;;;12.18;5.32;;;;;;;15.08;42.51;100464.72;8344763;28;20099;-73
2022/04/29 10:23:38;;;;;;;11.38;5.28;;;;;;;14.95;42.35;100449.25;8347167;28;20503;-72
2022/04/29 10:27:40;;;;;;;12.23;5.75;;;;;;;15.20;42.54;100452.22;8360866;28;20110;-72
2022/04/29 10:31:41;;;;;;;12.50;6.63;;;;;;;15.25;42.13;100448.56;8435239;27;20500;-73
2022/04/29 10:35:53;;;;;;;12.35;5.88;;;;;;;15.44;42.39;100441.03;8499152;27;20058;-72
2022/04/29 10:40:10;;;;;;;9.85;4.88;;;;;;;15.50;41.37;100439.81;8499076;27;20083;-72
2022/04/29 10:44:14;;;;;;;11.68;5.70;;;;;;;15.47;41.60;100437.72;8498922;27;20046;-73
2022/04/29 10:48:36;;;;;;;11.50;5.75;;;;;;;15.71;40.90;100433.88;8426579;28;20044;-73
2022/04/29 10:52:37;;;;;;;13.98;6.50;;;;;;;16.00;40.55;100426.88;8392800;28;20051;-73
2022/04/29 10:56:39;;;;;;;11.43;5.03;;;;;;;15.83;39.63;100423.25;8426532;28;20044;-72
2022/04/29 11:00:39;;;;;;;13.02;5.15;;;;;;;16.02;39.20;100426.56;8426357;28;20123;-73
2022/04/29 11:04:45;;;;;;;13.32;5.20;;;;;;;15.60;40.18;100423.25;8425463;28;20346;-73
2022/04/29 11:08:46;;;;;;;8.25;4.45;;;;;;;15.53;40.64;100422.91;8426145;28;20063;-72
2022/04/29 11:12:57;;;;;;;9.20;5.25;;;;;;;15.94;40.78;100416.41;8409047;28;20052;-72
2022/04/29 11:16:59;;;;;;;7.97;4.20;;;;;;;16.45;40.58;100416.63;8425768;28;20048;-73
2022/04/29 11:24:40;;;;;;;10.52;4.45;;;;;;;16.58;38.71;100414.13;8425736;28;20492;-72
2022/04/29 11:25:21;;;;;;;10.70;3.70;;;;;;;16.68;38.98;100409.19;8470339;27;20051;-72
2022/04/29 11:29:22;;;;;;;8.13;3.63;;;;;;;17.02;37.21;100411.19;8504688;27;20042;-72
2022/04/29 11:33:23;;;;;;;14.13;4.60;;;;;;;16.96;36.66;100398.81;8531529;27;20053;-73
2022/04/29 11:37:26;;;;;;;11.52;4.43;;;;;;;17.00;37.18;100402.50;8494413;27;20125;-73
2022/04/29 11:41:30;;;;;;;12.63;4.75;;;;;;;16.89;37.91;100393.03;8531208;27;20058;-72
2022/04/29 11:45:31;;;;;;;141.88;12.68;;;;;;;16.80;38.34;100390.28;8531146;27;20122;-72
2022/04/29 11:49:33;;;;;;;11.10;4.88;;;;;;;16.77;37.41;100390.13;8531011;27;20059;-72
2022/04/29 11:53:34;;;;;;;9.75;4.55;;;;;;;16.28;38.32;100394.78;8530575;27;20047;-73
2022/04/29 11:57:44;;;;;;;9.80;4.32;;;;;;;16.11;37.49;100389.25;8512124;27;20108;-72
2022/04/29 12:01:45;;;;;;;9.85;4.40;;;;;;;16.69;37.48;100388.19;8530550;27;20057;-72
2022/04/29 12:05:46;;;;;;;10.80;4.20;;;;;;;16.86;36.59;100371.84;8459877;27;20461;-72
2022/04/29 12:09:47;;;;;;;34.33;6.68;;;;;;;17.04;35.89;100372.66;8530287;27;20035;-73
2022/04/29 12:13:50;;;;;;;10.82;4.15;;;;;;;17.06;35.18;100371.22;8493333;27;20084;-71
2022/04/29 12:17:59;;;;;;;9.38;3.83;;;;;;;17.24;35.78;100372.81;8530009;27;20039;-73
2022/04/29 12:22:00;;;;;;;8.93;4.40;;;;;;;17.37;34.29;100364.78;8529702;27;20046;-73
2022/04/29 12:26:01;;;;;;;6.70;4.15;;;;;;;17.73;35.27;100357.81;8529792;27;20076;-72
2022/04/29 12:38:49;;;;;;;8.35;4.35;;;;;;;17.93;34.22;100334.44;8356768;28;20068;-73
2022/04/29 12:42:50;;;;;;;11.75;4.88;;;;;;;17.65;33.91;100327.81;8356913;28;20495;-72
2022/04/29 12:46:51;;;;;;;6.53;4.57;;;;;;;17.43;34.10;100336.16;8356791;28;20072;-72
2022/04/29 12:50:52;;;;;;;7.15;3.60;;;;;;;17.62;33.96;100328.44;8339959;28;20044;-72
2022/04/29 12:54:57;;;;;;;9.52;3.75;;;;;;;17.51;32.54;100321.69;8323509;28;20049;-73
2022/04/29 12:58:59;;;;;;;6.30;3.30;;;;;;;17.51;33.23;100321.69;8356561;28;20052;-73
2022/04/29 13:03:12;;;;;;;8.50;3.10;;;;;;;17.75;33.41;100305.59;8356385;28;20057;-73
2022/04/29 13:07:13;;;;;;;8.82;3.50;;;;;;;18.14;32.73;100297.03;8309270;28;20504;-73
2022/04/29 13:11:16;;;;;;;8.50;3.47;;;;;;;18.51;31.96;100294.53;8356250;28;20045;-72
2022/04/29 13:15:17;;;;;;;7.38;3.33;;;;;;;18.61;31.74;100283.28;8420468;28;20126;-73
2022/04/29 13:19:18;;;;;;;7.45;3.30;;;;;;;18.52;31.29;100285.22;8460583;28;20040;-73
2022/04/29 13:23:19;;;;;;;6.63;3.05;;;;;;;18.43;32.10;100276.28;8458117;28;20059;-73
2022/04/29 13:27:21;;;;;;;12.40;4.00;;;;;;;18.45;31.40;100268.56;8465711;28;20131;-72
2022/04/29 13:31:25;;;;;;;7.25;3.25;;;;;;;19.25;30.65;100271.88;8438637;28;20130;-73
2022/04/29 13:35:26;;;;;;;5.40;3.03;;;;;;;20.22;29.41;100272.81;8467188;28;20047;-72
2022/04/29 13:39:27;;;;;;;4.88;2.58;;;;;;;21.62;27.34;100275.63;8474770;27;20054;-73
2022/04/29 13:43:28;;;;;;;6.47;2.25;;;;;;;22.68;26.81;100267.13;8481294;27;20047;-73
2022/04/29 13:47:31;;;;;;;8.38;2.50;;;;;;;22.41;25.40;100270.88;8534911;27;20054;-72
2022/04/29 13:51:31;;;;;;;6.85;2.30;;;;;;;23.44;25.89;100271.00;8534511;27;20046;-72
2022/04/29 13:55:33;;;;;;;6.38;2.65;;;;;;;24.18;23.72;100266.75;8534597;27;20042;-73
2022/04/29 13:59:34;;;;;;;10.10;3.05;;;;;;;25.05;23.83;100260.03;8534784;27;20043;-73
2022/04/29 14:03:37;;;;;;;6.47;3.00;;;;;;;26.55;22.86;100245.47;8534532;27;20039;-73
2022/04/29 14:07:39;;;;;;;9.73;2.80;;;;;;;27.98;21.69;100257.28;8461722;28;20521;-73
2022/04/29 14:11:41;;;;;;;6.63;2.38;;;;;;;28.81;20.41;100251.16;8461660;28;20044;-73
2022/04/29 14:15:42;;;;;;;5.43;2.50;;;;;;;29.15;19.44;100242.22;8461596;28;20105;-73
2022/04/29 14:19:43;;;;;;;4.25;2.60;;;;;;;29.00;19.93;100249.06;8461614;28;20058;-73
2022/04/29 14:23:44;;;;;;;8.23;3.13;;;;;;;28.35;19.52;100244.94;8444382;28;20054;-74
2022/04/29 14:27:45;;;;;;;6.57;3.05;;;;;;;27.93;21.33;100252.13;8410634;28;20111;-72
2022/04/29 14:31:46;;;;;;;10.50;2.80;;;;;;;26.68;22.59;100243.94;8461004;28;20048;-73
2022/04/29 14:35:49;;;;;;;6.63;3.28;;;;;;;26.40;21.84;100245.41;8392891;28;20044;-72
2022/04/29 14:39:50;;;;;;;9.80;3.30;;;;;;;25.68;22.31;100253.56;8459981;28;20048;-73
2022/04/29 14:43:51;;;;;;;5.60;3.10;;;;;;;25.81;22.18;100246.56;8460846;28;20043;-73
2022/04/29 14:47:52;;;;;;;5.22;3.15;;;;;;;25.81;22.30;100245.75;8460581;28;20049;-73
2022/04/29 14:51:54;;;;;;;5.78;3.03;;;;;;;26.63;21.63;100230.47;8460415;28;20105;-73
2022/04/29 14:55:58;;;;;;;5.47;3.38;;;;;;;26.86;21.31;100228.97;8460409;28;20515;-72
2022/04/29 14:59:59;;;;;;;3.88;2.70;;;;;;;27.36;20.62;100233.84;8443294;28;20421;-73
2022/04/29 15:04:00;;;;;;;6.72;2.95;;;;;;;26.87;21.02;100235.31;8426381;27;20051;-73
2022/04/29 15:08:01;;;;;;;5.18;2.55;;;;;;;25.77;22.16;100239.41;8532363;27;20043;-73
2022/04/29 15:16:23;;;;;;;9.65;3.00;;;;;;;26.11;21.32;100226.22;8513738;27;20043;-73
2022/04/29 15:20:23;;;;;;;9.30;3.83;;;;;;;26.47;21.25;100228.81;8493765;27;20496;-73
2022/04/29 15:24:25;;;;;;;4.53;2.72;;;;;;;25.69;21.87;100226.72;8529867;27;20035;-73
2022/04/29 15:28:26;;;;;;;5.15;2.60;;;;;;;26.27;20.30;100223.97;8525812;27;20039;-73
2022/04/29 15:32:27;;;;;;;3.97;2.45;;;;;;;26.36;20.46;100216.91;8499878;27;20100;-73
2022/04/29 15:36:28;;;;;;;4.90;2.38;;;;;;;27.13;19.90;100226.69;8509669;27;20043;-73
2022/04/29 15:40:29;;;;;;;4.50;2.95;;;;;;;27.21;19.04;100219.97;8501826;27;20067;-73
2022/04/29 15:44:31;;;;;;;7.75;3.53;;;;;;;28.24;17.94;100221.94;8504521;27;20039;-73
2022/04/29 15:48:34;;;;;;;6.57;3.60;;;;;;;28.73;17.68;100216.25;8527260;27;20046;-73
2022/04/29 15:52:35;;;;;;;6.05;3.17;;;;;;;27.07;18.58;100222.72;8424093;28;20101;-74
2022/04/29 15:56:36;;;;;;;4.03;2.55;;;;;;;26.08;19.60;100222.22;8424480;28;20131;-73
2022/04/29 16:00:37;;;;;;;6.32;3.67;;;;;;;27.04;18.48;100217.97;8392478;28;20057;-73
2022/04/29 16:04:38;;;;;;;8.07;2.80;;;;;;;27.47;17.27;100212.47;8377126;28;20458;-74
2022/04/29 16:08:39;;;;;;;3.65;2.40;;;;;;;27.51;17.25;100224.38;8398442;28;20051;-75
2022/04/29 16:12:41;;;;;;;4.32;2.20;;;;;;;26.56;17.39;100224.88;8379786;28;20044;-74
2022/04/29 16:16:45;;;;;;;3.72;2.45;;;;;;;24.58;19.25;100218.41;8424137;28;20127;-73
2022/04/29 16:20:46;;;;;;;7.88;3.58;;;;;;;23.12;20.95;100221.59;8403787;28;20084;-73
2022/04/29 16:29:07;;;;;;;6.60;4.10;;;;;;;22.06;22.26;100208.38;8524744;27;20138;-73
2022/04/29 16:33:08;;;;;;;7.00;3.50;;;;;;;21.18;23.46;100212.47;8507782;27;20039;-72
2022/04/29 16:37:11;;;;;;;16.65;3.83;;;;;;;20.38;24.53;100200.78;8508809;27;20519;-73
2022/04/29 16:41:13;;;;;;;8.40;4.10;;;;;;;19.72;25.84;100201.88;8464366;27;20527;-73
2022/04/29 16:45:14;;;;;;;8.65;4.00;;;;;;;19.41;26.03;100201.59;8510830;27;20046;-72
2022/04/29 16:49:15;;;;;;;24.40;9.30;;;;;;;18.96;27.14;100202.44;8500016;27;20141;-73
2022/04/29 16:53:16;;;;;;;16.95;8.07;;;;;;;18.52;27.93;100197.69;8526364;27;20043;-74
2022/04/29 17:01:37;;;;;;;8.93;4.43;;;;;;;17.95;28.93;100195.53;8495310;27;20043;-73
2022/04/29 17:05:38;;;;;;;16.10;7.22;;;;;;;17.64;29.63;100206.81;8473089;27;20046;-73
2022/04/29 17:09:40;;;;;;;17.17;6.25;;;;;;;17.37;30.25;100203.66;8518279;27;20051;-73
2022/04/29 17:13:41;;;;;;;13.70;6.28;;;;;;;17.00;30.61;100203.28;8491625;28;20043;-73
2022/04/29 17:17:42;;;;;;;9.65;4.80;;;;;;;16.63;31.92;100214.91;8495899;27;20102;-72
2022/04/29 17:21:45;;;;;;;19.05;5.88;;;;;;;16.30;32.32;100212.63;8496765;27;20044;-73
2022/04/29 17:25:46;;;;;;;31.92;14.95;;;;;;;15.96;33.30;100202.50;8509195;27;20070;-73
2022/04/29 17:29:47;;;;;;;28.80;16.88;;;;;;;15.69;34.10;100205.47;8513472;27;20054;-73
2022/04/29 17:33:51;;;;;;;19.15;10.80;;;;;;;15.32;35.04;100212.19;8523343;27;20496;-73
2022/04/29 17:37:52;;;;;;;10.27;6.10;;;;;;;15.08;35.93;100204.34;8511620;27;20145;-72
2022/04/29 17:46:12;;;;;;;8.57;5.13;;;;;;;14.53;38.58;100214.72;8520253;27;20043;-74
2022/04/29 17:50:17;;;;;;;16.10;6.00;;;;;;;14.25;39.22;100224.03;8511979;27;20075;-73
2022/04/29 17:54:18;;;;;;;12.50;5.10;;;;;;;14.00;39.77;100216.44;8512852;27;20428;-72
2022/04/29 17:58:20;;;;;;;13.27;5.38;;;;;;;13.70;40.98;100224.06;8506890;27;20046;-72
2022/04/29 18:02:21;;;;;;;16.35;5.25;;;;;;;13.41;41.82;100223.56;8482013;27;20381;-73
2022/04/29 18:06:22;;;;;;;18.42;8.00;;;;;;;13.13;42.54;100232.75;8493596;28;20051;-72
2022/04/29 18:10:25;;;;;;;19.08;7.60;;;;;;;12.92;43.17;100230.38;8457080;27;20058;-72
2022/04/29 18:14:26;;;;;;;24.75;9.45;;;;;;;12.65;43.75;100239.22;8463296;27;20096;-72
2022/04/29 18:18:27;;;;;;;26.58;8.88;;;;;;;12.43;44.11;100238.19;8516604;27;20160;-73
2022/04/29 18:22:28;;;;;;;32.08;9.95;;;;;;;12.20;45.17;100240.69;8479490;27;20489;-72
2022/04/29 18:26:29;;;;;;;20.70;8.65;;;;;;;11.96;46.01;100239.91;8488356;27;20043;-72
2022/04/29 18:30:32;;;;;;;22.15;8.00;;;;;;;11.77;46.88;100239.06;8507841;27;20055;-73
2022/04/29 18:34:33;;;;;;;20.98;7.57;;;;;;;11.57;47.33;100239.28;8502858;27;20051;-73
2022/04/29 18:38:36;;;;;;;22.83;9.77;;;;;;;11.36;48.02;100236.81;8478080;27;20047;-73
2022/04/29 18:42:41;;;;;;;21.50;8.48;;;;;;;11.18;48.36;100234.81;8476539;27;20560;-72
2022/04/29 18:46:44;;;;;;;11.52;6.03;;;;;;;10.96;48.93;100237.16;8520310;27;20302;-72
2022/04/29 18:50:45;;;;;;;12.52;4.18;;;;;;;10.83;49.16;100237.81;8492133;27;20050;-73
2022/04/29 18:54:46;;;;;;;7.15;2.90;;;;;;;10.73;48.99;100232.50;8511070;27;20067;-72
2022/04/29 18:58:48;;;;;;;12.52;2.63;;;;;;;10.54;49.12;100245.88;8461992;27;20132;-72
2022/04/29 19:02:49;;;;;;;6.45;2.83;;;;;;;10.39;49.49;100233.28;8516373;27;20043;-72
2022/04/29 19:06:51;;;;;;;10.10;2.80;;;;;;;10.25;49.86;100237.69;8530879;27;20449;-72
2022/04/29 19:10:55;;;;;;;5.47;2.72;;;;;;;10.06;50.32;100236.66;8498487;27;20047;-72
2022/04/29 19:14:57;;;;;;;7.07;2.95;;;;;;;9.87;50.82;100235.69;8491442;27;20564;-72
2022/04/29 19:18:59;;;;;;;6.82;3.00;;;;;;;9.71;51.47;100238.44;8532261;27;20047;-72
2022/04/29 19:23:00;;;;;;;7.00;2.97;;;;;;;9.62;51.96;100237.38;8506694;27;20452;-72
2022/04/29 19:27:02;;;;;;;9.38;3.40;;;;;;;9.52;52.97;100223.94;8478936;27;20068;-72
2022/04/29 19:31:03;;;;;;;11.55;3.58;;;;;;;9.43;53.84;100225.56;8523989;27;20035;-72
2022/04/29 19:35:07;;;;;;;14.02;5.22;;;;;;;9.36;54.31;100219.66;8443625;27;20408;-71
2022/04/29 19:39:09;;;;;;;12.57;3.80;;;;;;;9.25;54.24;100226.97;8514141;27;20088;-72